sensor_id;sensor_type;location;lat;lon;timestamp;P1;durP1;ratioP1;P2;durP2;ratioP2
34673;SDS011;20879;55.668;37.858;2023-08-01T00:00:13;40.83;;;11.63;;
34673;SDS011;20879;55.668;37.858;2023-08-01T00:02:44;41.43;;;11.40;;
34673;SDS011;20879;55.668;37.858;2023-08-01T00:05:16;48.80;;;13.18;;
34673;SDS011;20879;55.668;37.858;2023-08-01T00:07:47;40.70;;;12.25;;
34673;SDS011;20879;55.668;37.858;2023-08-01T00:10:22;43.50;;;12.98;;
34673;SDS011;20879;55.668;37.858;2023-08-01T00:12:51;38.97;;;12.63;;
34673;SDS011;20879;55.668;37.858;2023-08-01T00:15:22;38.50;;;11.18;;
34673;SDS011;20879;55.668;37.858;2023-08-01T00:17:52;38.03;;;12.02;;
34673;SDS011;20879;55.668;37.858;2023-08-01T00:20:28;30.42;;;12.85;;
34673;SDS011;20879;55.668;37.858;2023-08-01T00:22:59;31.13;;;11.98;;
34673;SDS011;20879;55.668;37.858;2023-08-01T00:25:29;31.23;;;12.10;;
34673;SDS011;20879;55.668;37.858;2023-08-01T00:28:05;35.20;;;13.25;;
34673;SDS011;20879;55.668;37.858;2023-08-01T00:30:34;30.27;;;13.38;;
34673;SDS011;20879;55.668;37.858;2023-08-01T00:33:05;36.63;;;19.60;;
34673;SDS011;20879;55.668;37.858;2023-08-01T00:35:55;41.38;;;23.00;;
34673;SDS011;20879;55.668;37.858;2023-08-01T00:38:32;42.75;;;24.30;;
34673;SDS011;20879;55.668;37.858;2023-08-01T00:41:02;56.30;;;31.48;;
34673;SDS011;20879;55.668;37.858;2023-08-01T00:43:33;47.05;;;27.50;;
34673;SDS011;20879;55.668;37.858;2023-08-01T00:46:03;62.90;;;30.80;;
34673;SDS011;20879;55.668;37.858;2023-08-01T00:48:39;60.40;;;32.00;;
34673;SDS011;20879;55.668;37.858;2023-08-01T00:51:18;64.90;;;34.88;;
34673;SDS011;20879;55.668;37.858;2023-08-01T00:53:47;54.10;;;30.38;;
34673;SDS011;20879;55.668;37.858;2023-08-01T00:56:24;53.47;;;26.95;;
34673;SDS011;20879;55.668;37.858;2023-08-01T00:59:00;66.68;;;37.90;;
34673;SDS011;20879;55.668;37.858;2023-08-01T01:01:29;58.40;;;33.67;;
34673;SDS011;20879;55.668;37.858;2023-08-01T01:03:59;46.33;;;25.02;;
34673;SDS011;20879;55.668;37.858;2023-08-01T01:06:33;55.28;;;29.10;;
34673;SDS011;20879;55.668;37.858;2023-08-01T01:09:18;56.75;;;29.83;;
34673;SDS011;20879;55.668;37.858;2023-08-01T01:11:49;59.90;;;29.70;;
34673;SDS011;20879;55.668;37.858;2023-08-01T01:14:23;53.60;;;28.85;;
34673;SDS011;20879;55.668;37.858;2023-08-01T01:16:59;58.15;;;31.08;;
34673;SDS011;20879;55.668;37.858;2023-08-01T01:19:29;60.85;;;32.25;;
34673;SDS011;20879;55.668;37.858;2023-08-01T01:22:04;51.78;;;29.08;;
34673;SDS011;20879;55.668;37.858;2023-08-01T01:24:41;51.00;;;26.55;;
34673;SDS011;20879;55.668;37.858;2023-08-01T01:27:13;43.45;;;23.38;;
34673;SDS011;20879;55.668;37.858;2023-08-01T01:29:50;54.00;;;23.88;;
34673;SDS011;20879;55.668;37.858;2023-08-01T01:32:20;34.33;;;19.92;;
34673;SDS011;20879;55.668;37.858;2023-08-01T01:34:50;34.95;;;18.02;;
34673;SDS011;20879;55.668;37.858;2023-08-01T01:37:32;34.55;;;17.40;;
34673;SDS011;20879;55.668;37.858;2023-08-01T01:40:03;30.13;;;17.73;;
34673;SDS011;20879;55.668;37.858;2023-08-01T01:42:34;34.88;;;18.00;;
34673;SDS011;20879;55.668;37.858;2023-08-01T01:45:09;38.08;;;19.02;;
34673;SDS011;20879;55.668;37.858;2023-08-01T01:47:44;39.60;;;19.48;;
34673;SDS011;20879;55.668;37.858;2023-08-01T01:50:14;36.35;;;17.23;;
34673;SDS011;20879;55.668;37.858;2023-08-01T01:52:46;34.03;;;17.15;;
34673;SDS011;20879;55.668;37.858;2023-08-01T01:55:16;39.05;;;18.42;;
34673;SDS011;20879;55.668;37.858;2023-08-01T01:57:53;34.63;;;17.40;;
34673;SDS011;20879;55.668;37.858;2023-08-01T02:00:29;35.85;;;16.65;;
34673;SDS011;20879;55.668;37.858;2023-08-01T02:02:58;33.20;;;17.13;;
34673;SDS011;20879;55.668;37.858;2023-08-01T02:05:29;28.92;;;15.95;;
34673;SDS011;20879;55.668;37.858;2023-08-01T02:08:01;35.42;;;16.08;;
34673;SDS011;20879;55.668;37.858;2023-08-01T02:10:37;36.28;;;16.38;;
34673;SDS011;20879;55.668;37.858;2023-08-01T02:13:07;34.33;;;15.23;;
34673;SDS011;20879;55.668;37.858;2023-08-01T02:15:37;27.52;;;14.20;;
34673;SDS011;20879;55.668;37.858;2023-08-01T02:18:08;30.25;;;15.85;;
34673;SDS011;20879;55.668;37.858;2023-08-01T02:20:37;45.10;;;17.08;;
34673;SDS011;20879;55.668;37.858;2023-08-01T02:23:17;37.00;;;16.85;;
34673;SDS011;20879;55.668;37.858;2023-08-01T02:25:46;40.55;;;19.15;;
34673;SDS011;20879;55.668;37.858;2023-08-01T02:28:16;43.33;;;22.20;;
34673;SDS011;20879;55.668;37.858;2023-08-01T02:30:46;42.55;;;21.15;;
34673;SDS011;20879;55.668;37.858;2023-08-01T02:33:25;44.60;;;20.98;;
34673;SDS011;20879;55.668;37.858;2023-08-01T02:36:00;53.53;;;21.50;;
34673;SDS011;20879;55.668;37.858;2023-08-01T02:38:38;45.30;;;21.90;;
34673;SDS011;20879;55.668;37.858;2023-08-01T02:41:08;46.65;;;22.20;;
34673;SDS011;20879;55.668;37.858;2023-08-01T02:43:43;45.92;;;23.05;;
34673;SDS011;20879;55.668;37.858;2023-08-01T02:46:14;46.33;;;23.48;;
34673;SDS011;20879;55.668;37.858;2023-08-01T02:48:43;39.13;;;21.02;;
34673;SDS011;20879;55.668;37.858;2023-08-01T02:51:17;49.50;;;20.90;;
34673;SDS011;20879;55.668;37.858;2023-08-01T02:53:54;50.45;;;20.73;;
34673;SDS011;20879;55.668;37.858;2023-08-01T02:56:29;39.90;;;19.85;;
34673;SDS011;20879;55.668;37.858;2023-08-01T02:59:04;40.38;;;19.48;;
34673;SDS011;20879;55.668;37.858;2023-08-01T03:01:35;39.60;;;18.25;;
34673;SDS011;20879;55.668;37.858;2023-08-01T03:04:05;40.53;;;18.63;;
34673;SDS011;20879;55.668;37.858;2023-08-01T03:06:39;32.47;;;17.50;;
34673;SDS011;20879;55.668;37.858;2023-08-01T03:09:10;31.08;;;16.23;;
34673;SDS011;20879;55.668;37.858;2023-08-01T03:11:40;39.88;;;16.10;;
34673;SDS011;20879;55.668;37.858;2023-08-01T03:14:15;33.35;;;15.35;;
34673;SDS011;20879;55.668;37.858;2023-08-01T03:16:46;30.70;;;16.08;;
34673;SDS011;20879;55.668;37.858;2023-08-01T03:19:15;33.97;;;15.93;;
34673;SDS011;20879;55.668;37.858;2023-08-01T03:21:45;38.55;;;17.45;;
34673;SDS011;20879;55.668;37.858;2023-08-01T03:24:22;33.20;;;17.60;;
34673;SDS011;20879;55.668;37.858;2023-08-01T03:26:52;35.90;;;17.10;;
34673;SDS011;20879;55.668;37.858;2023-08-01T03:29:22;35.92;;;16.02;;
34673;SDS011;20879;55.668;37.858;2023-08-01T03:31:53;37.60;;;16.88;;
34673;SDS011;20879;55.668;37.858;2023-08-01T03:34:22;30.58;;;15.77;;
34673;SDS011;20879;55.668;37.858;2023-08-01T03:36:56;32.42;;;15.38;;
34673;SDS011;20879;55.668;37.858;2023-08-01T03:39:28;40.28;;;17.55;;
34673;SDS011;20879;55.668;37.858;2023-08-01T03:42:03;39.03;;;16.98;;
34673;SDS011;20879;55.668;37.858;2023-08-01T03:44:45;36.70;;;17.75;;
34673;SDS011;20879;55.668;37.858;2023-08-01T03:47:22;35.75;;;17.05;;
34673;SDS011;20879;55.668;37.858;2023-08-01T03:49:51;33.92;;;16.45;;
34673;SDS011;20879;55.668;37.858;2023-08-01T03:52:23;36.72;;;17.25;;
34673;SDS011;20879;55.668;37.858;2023-08-01T03:54:55;35.28;;;16.42;;
34673;SDS011;20879;55.668;37.858;2023-08-01T03:57:30;34.47;;;16.92;;
34673;SDS011;20879;55.668;37.858;2023-08-01T04:00:02;34.47;;;15.60;;
34673;SDS011;20879;55.668;37.858;2023-08-01T04:02:38;34.45;;;15.93;;
34673;SDS011;20879;55.668;37.858;2023-08-01T04:05:20;32.70;;;15.07;;
34673;SDS011;20879;55.668;37.858;2023-08-01T04:07:56;31.40;;;14.35;;
34673;SDS011;20879;55.668;37.858;2023-08-01T04:10:28;38.97;;;16.02;;
34673;SDS011;20879;55.668;37.858;2023-08-01T04:12:58;35.75;;;16.38;;
34673;SDS011;20879;55.668;37.858;2023-08-01T04:15:32;40.05;;;15.50;;
34673;SDS011;20879;55.668;37.858;2023-08-01T04:18:04;45.85;;;17.25;;
34673;SDS011;20879;55.668;37.858;2023-08-01T04:20:35;39.45;;;15.48;;
34673;SDS011;20879;55.668;37.858;2023-08-01T04:25:47;39.65;;;16.17;;
34673;SDS011;20879;55.668;37.858;2023-08-01T04:28:17;37.08;;;14.68;;
34673;SDS011;20879;55.668;37.858;2023-08-01T04:30:48;37.60;;;14.90;;
34673;SDS011;20879;55.668;37.858;2023-08-01T04:33:20;39.47;;;15.32;;
34673;SDS011;20879;55.668;37.858;2023-08-01T04:35:55;37.80;;;15.60;;
34673;SDS011;20879;55.668;37.858;2023-08-01T04:38:25;42.42;;;15.23;;
34673;SDS011;20879;55.668;37.858;2023-08-01T04:40:57;46.92;;;15.32;;
34673;SDS011;20879;55.668;37.858;2023-08-01T04:43:26;44.05;;;15.02;;
34673;SDS011;20879;55.668;37.858;2023-08-01T04:45:56;48.92;;;15.43;;
34673;SDS011;20879;55.668;37.858;2023-08-01T04:48:28;37.20;;;14.50;;
34673;SDS011;20879;55.668;37.858;2023-08-01T04:51:04;34.55;;;13.35;;
34673;SDS011;20879;55.668;37.858;2023-08-01T04:56:22;37.75;;;12.95;;
34673;SDS011;20879;55.668;37.858;2023-08-01T04:58:53;36.28;;;13.30;;
34673;SDS011;20879;55.668;37.858;2023-08-01T05:01:28;33.50;;;12.45;;
34673;SDS011;20879;55.668;37.858;2023-08-01T05:03:57;40.22;;;13.40;;
34673;SDS011;20879;55.668;37.858;2023-08-01T05:06:33;49.83;;;12.93;;
34673;SDS011;20879;55.668;37.858;2023-08-01T05:09:03;43.13;;;11.55;;
34673;SDS011;20879;55.668;37.858;2023-08-01T05:11:36;49.38;;;11.82;;
34673;SDS011;20879;55.668;37.858;2023-08-01T05:14:11;35.28;;;10.65;;
34673;SDS011;20879;55.668;37.858;2023-08-01T05:16:42;38.17;;;11.38;;
34673;SDS011;20879;55.668;37.858;2023-08-01T05:19:16;40.35;;;11.13;;
34673;SDS011;20879;55.668;37.858;2023-08-01T05:21:46;39.95;;;10.35;;
34673;SDS011;20879;55.668;37.858;2023-08-01T05:24:16;30.88;;;9.90;;
34673;SDS011;20879;55.668;37.858;2023-08-01T05:26:58;28.27;;;9.60;;
34673;SDS011;20879;55.668;37.858;2023-08-01T05:29:33;31.95;;;9.77;;
34673;SDS011;20879;55.668;37.858;2023-08-01T05:32:04;21.10;;;7.93;;
34673;SDS011;20879;55.668;37.858;2023-08-01T05:34:38;30.00;;;7.50;;
34673;SDS011;20879;55.668;37.858;2023-08-01T05:37:13;23.85;;;7.05;;
34673;SDS011;20879;55.668;37.858;2023-08-01T05:39:44;21.73;;;6.82;;
34673;SDS011;20879;55.668;37.858;2023-08-01T05:42:15;19.02;;;7.13;;
34673;SDS011;20879;55.668;37.858;2023-08-01T05:44:49;19.63;;;5.82;;
34673;SDS011;20879;55.668;37.858;2023-08-01T05:47:19;18.77;;;5.20;;
34673;SDS011;20879;55.668;37.858;2023-08-01T05:49:50;12.63;;;5.72;;
34673;SDS011;20879;55.668;37.858;2023-08-01T05:52:30;8.77;;;4.90;;
34673;SDS011;20879;55.668;37.858;2023-08-01T05:55:06;9.98;;;4.63;;
34673;SDS011;20879;55.668;37.858;2023-08-01T05:57:43;12.48;;;4.57;;
34673;SDS011;20879;55.668;37.858;2023-08-01T06:00:14;6.80;;;4.25;;
34673;SDS011;20879;55.668;37.858;2023-08-01T06:02:48;7.93;;;4.25;;
34673;SDS011;20879;55.668;37.858;2023-08-01T06:05:28;7.72;;;3.60;;
34673;SDS011;20879;55.668;37.858;2023-08-01T06:08:05;9.02;;;3.97;;
34673;SDS011;20879;55.668;37.858;2023-08-01T06:10:36;12.23;;;4.18;;
34673;SDS011;20879;55.668;37.858;2023-08-01T06:13:13;8.95;;;3.63;;
34673;SDS011;20879;55.668;37.858;2023-08-01T06:15:47;8.63;;;3.70;;
34673;SDS011;20879;55.668;37.858;2023-08-01T06:18:24;10.05;;;4.20;;
34673;SDS011;20879;55.668;37.858;2023-08-01T06:21:02;3.97;;;3.42;;
34673;SDS011;20879;55.668;37.858;2023-08-01T06:23:33;8.65;;;3.70;;
34673;SDS011;20879;55.668;37.858;2023-08-01T06:26:04;7.28;;;3.65;;
34673;SDS011;20879;55.668;37.858;2023-08-01T06:28:42;11.68;;;4.03;;
34673;SDS011;20879;55.668;37.858;2023-08-01T06:31:11;5.93;;;3.58;;
34673;SDS011;20879;55.668;37.858;2023-08-01T06:33:45;7.38;;;3.67;;
34673;SDS011;20879;55.668;37.858;2023-08-01T06:36:24;6.68;;;3.40;;
34673;SDS011;20879;55.668;37.858;2023-08-01T06:38:59;6.30;;;3.40;;
34673;SDS011;20879;55.668;37.858;2023-08-01T06:41:28;4.43;;;2.85;;
34673;SDS011;20879;55.668;37.858;2023-08-01T06:44:06;7.90;;;3.10;;
34673;SDS011;20879;55.668;37.858;2023-08-01T06:46:38;8.45;;;3.58;;
34673;SDS011;20879;55.668;37.858;2023-08-01T06:49:11;7.93;;;3.08;;
34673;SDS011;20879;55.668;37.858;2023-08-01T06:51:49;5.55;;;3.30;;
34673;SDS011;20879;55.668;37.858;2023-08-01T06:54:25;5.95;;;3.50;;
34673;SDS011;20879;55.668;37.858;2023-08-01T06:56:57;8.68;;;3.75;;
34673;SDS011;20879;55.668;37.858;2023-08-01T06:59:30;3.33;;;2.90;;
34673;SDS011;20879;55.668;37.858;2023-08-01T07:02:00;4.90;;;2.70;;
34673;SDS011;20879;55.668;37.858;2023-08-01T07:04:30;7.05;;;2.90;;
34673;SDS011;20879;55.668;37.858;2023-08-01T07:07:03;5.80;;;2.45;;
34673;SDS011;20879;55.668;37.858;2023-08-01T07:09:34;7.68;;;2.85;;
34673;SDS011;20879;55.668;37.858;2023-08-01T07:12:05;5.43;;;2.90;;
34673;SDS011;20879;55.668;37.858;2023-08-01T07:14:38;3.67;;;2.88;;
34673;SDS011;20879;55.668;37.858;2023-08-01T07:17:15;5.18;;;3.17;;
34673;SDS011;20879;55.668;37.858;2023-08-01T07:19:45;4.30;;;2.60;;
34673;SDS011;20879;55.668;37.858;2023-08-01T07:22:16;4.07;;;2.80;;
34673;SDS011;20879;55.668;37.858;2023-08-01T07:24:45;3.15;;;2.60;;
34673;SDS011;20879;55.668;37.858;2023-08-01T07:27:15;7.13;;;2.83;;
34673;SDS011;20879;55.668;37.858;2023-08-01T07:29:48;4.10;;;2.90;;
34673;SDS011;20879;55.668;37.858;2023-08-01T07:32:28;5.63;;;3.25;;
34673;SDS011;20879;55.668;37.858;2023-08-01T07:35:07;6.10;;;3.10;;
34673;SDS011;20879;55.668;37.858;2023-08-01T07:37:40;3.80;;;2.80;;
34673;SDS011;20879;55.668;37.858;2023-08-01T07:40:15;8.45;;;2.97;;
34673;SDS011;20879;55.668;37.858;2023-08-01T07:42:46;7.23;;;3.27;;
34673;SDS011;20879;55.668;37.858;2023-08-01T07:45:21;6.55;;;2.95;;
34673;SDS011;20879;55.668;37.858;2023-08-01T07:47:55;5.75;;;2.75;;
34673;SDS011;20879;55.668;37.858;2023-08-01T07:50:27;3.03;;;2.72;;
34673;SDS011;20879;55.668;37.858;2023-08-01T07:52:57;4.03;;;2.78;;
34673;SDS011;20879;55.668;37.858;2023-08-01T07:55:27;4.20;;;2.70;;
34673;SDS011;20879;55.668;37.858;2023-08-01T07:57:57;6.97;;;2.80;;
34673;SDS011;20879;55.668;37.858;2023-08-01T08:00:33;3.92;;;2.63;;
34673;SDS011;20879;55.668;37.858;2023-08-01T08:03:06;3.55;;;3.15;;
34673;SDS011;20879;55.668;37.858;2023-08-01T08:05:37;6.53;;;2.80;;
34673;SDS011;20879;55.668;37.858;2023-08-01T08:08:07;2.88;;;2.50;;
34673;SDS011;20879;55.668;37.858;2023-08-01T08:10:37;9.00;;;2.67;;
34673;SDS011;20879;55.668;37.858;2023-08-01T08:13:10;3.17;;;2.60;;
34673;SDS011;20879;55.668;37.858;2023-08-01T08:15:44;4.88;;;2.67;;
34673;SDS011;20879;55.668;37.858;2023-08-01T08:18:15;5.35;;;3.00;;
34673;SDS011;20879;55.668;37.858;2023-08-01T08:20:52;4.18;;;2.78;;
34673;SDS011;20879;55.668;37.858;2023-08-01T08:23:29;6.18;;;3.00;;
34673;SDS011;20879;55.668;37.858;2023-08-01T08:25:58;6.53;;;2.78;;
34673;SDS011;20879;55.668;37.858;2023-08-01T08:28:28;6.85;;;4.63;;
34673;SDS011;20879;55.668;37.858;2023-08-01T08:31:03;8.98;;;2.85;;
34673;SDS011;20879;55.668;37.858;2023-08-01T08:33:32;3.95;;;2.90;;
34673;SDS011;20879;55.668;37.858;2023-08-01T08:36:02;6.18;;;2.85;;
34673;SDS011;20879;55.668;37.858;2023-08-01T08:38:40;8.35;;;3.10;;
34673;SDS011;20879;55.668;37.858;2023-08-01T08:41:13;4.22;;;3.50;;
34673;SDS011;20879;55.668;37.858;2023-08-01T08:43:48;6.55;;;3.25;;
34673;SDS011;20879;55.668;37.858;2023-08-01T08:46:20;5.55;;;3.35;;
34673;SDS011;20879;55.668;37.858;2023-08-01T08:48:54;8.40;;;4.10;;
34673;SDS011;20879;55.668;37.858;2023-08-01T08:51:29;6.80;;;4.10;;
34673;SDS011;20879;55.668;37.858;2023-08-01T08:54:05;8.75;;;3.28;;
34673;SDS011;20879;55.668;37.858;2023-08-01T08:56:35;5.40;;;3.40;;
34673;SDS011;20879;55.668;37.858;2023-08-01T08:59:11;7.75;;;3.47;;
34673;SDS011;20879;55.668;37.858;2023-08-01T09:01:45;8.55;;;4.22;;
34673;SDS011;20879;55.668;37.858;2023-08-01T09:04:19;4.63;;;3.10;;
34673;SDS011;20879;55.668;37.858;2023-08-01T09:06:51;6.47;;;4.22;;
34673;SDS011;20879;55.668;37.858;2023-08-01T09:09:24;5.55;;;3.25;;
34673;SDS011;20879;55.668;37.858;2023-08-01T09:11:58;6.45;;;3.22;;
34673;SDS011;20879;55.668;37.858;2023-08-01T09:14:36;8.13;;;3.15;;
34673;SDS011;20879;55.668;37.858;2023-08-01T09:17:08;8.23;;;3.70;;
34673;SDS011;20879;55.668;37.858;2023-08-01T09:19:46;6.13;;;3.50;;
34673;SDS011;20879;55.668;37.858;2023-08-01T09:22:16;4.30;;;3.15;;
34673;SDS011;20879;55.668;37.858;2023-08-01T09:24:52;5.72;;;4.25;;
34673;SDS011;20879;55.668;37.858;2023-08-01T09:27:22;8.38;;;3.30;;
34673;SDS011;20879;55.668;37.858;2023-08-01T09:30:07;6.70;;;2.85;;
34673;SDS011;20879;55.668;37.858;2023-08-01T09:32:50;6.50;;;3.20;;
34673;SDS011;20879;55.668;37.858;2023-08-01T09:35:25;5.07;;;3.30;;
34673;SDS011;20879;55.668;37.858;2023-08-01T09:38:05;5.72;;;3.35;;
34673;SDS011;20879;55.668;37.858;2023-08-01T09:40:36;7.60;;;3.63;;
34673;SDS011;20879;55.668;37.858;2023-08-01T09:43:06;5.32;;;3.35;;
34673;SDS011;20879;55.668;37.858;2023-08-01T09:45:48;6.43;;;3.15;;
34673;SDS011;20879;55.668;37.858;2023-08-01T09:48:30;5.40;;;2.85;;
34673;SDS011;20879;55.668;37.858;2023-08-01T09:51:06;9.07;;;2.97;;
34673;SDS011;20879;55.668;37.858;2023-08-01T09:53:48;4.78;;;3.38;;
34673;SDS011;20879;55.668;37.858;2023-08-01T09:56:25;5.13;;;3.05;;
34673;SDS011;20879;55.668;37.858;2023-08-01T09:58:56;3.78;;;2.90;;
34673;SDS011;20879;55.668;37.858;2023-08-01T10:01:31;3.10;;;2.63;;
34673;SDS011;20879;55.668;37.858;2023-08-01T10:04:04;3.65;;;2.75;;
34673;SDS011;20879;55.668;37.858;2023-08-01T10:06:36;5.22;;;3.00;;
34673;SDS011;20879;55.668;37.858;2023-08-01T10:09:13;4.97;;;2.63;;
34673;SDS011;20879;55.668;37.858;2023-08-01T10:11:50;3.92;;;2.80;;
34673;SDS011;20879;55.668;37.858;2023-08-01T10:14:21;21.73;;;4.07;;
34673;SDS011;20879;55.668;37.858;2023-08-01T10:16:52;5.22;;;2.75;;
34673;SDS011;20879;55.668;37.858;2023-08-01T10:19:26;4.32;;;3.00;;
34673;SDS011;20879;55.668;37.858;2023-08-01T10:22:01;4.93;;;3.17;;
34673;SDS011;20879;55.668;37.858;2023-08-01T10:24:33;4.68;;;3.17;;
34673;SDS011;20879;55.668;37.858;2023-08-01T10:29:42;8.38;;;3.35;;
34673;SDS011;20879;55.668;37.858;2023-08-01T10:32:13;4.35;;;3.30;;
34673;SDS011;20879;55.668;37.858;2023-08-01T10:34:52;3.50;;;3.00;;
34673;SDS011;20879;55.668;37.858;2023-08-01T10:37:22;3.72;;;2.67;;
34673;SDS011;20879;55.668;37.858;2023-08-01T10:39:56;4.68;;;2.95;;
34673;SDS011;20879;55.668;37.858;2023-08-01T10:42:37;4.72;;;3.05;;
34673;SDS011;20879;55.668;37.858;2023-08-01T10:45:21;9.48;;;3.70;;
34673;SDS011;20879;55.668;37.858;2023-08-01T10:48:06;8.10;;;3.17;;
34673;SDS011;20879;55.668;37.858;2023-08-01T10:50:38;6.43;;;3.08;;
34673;SDS011;20879;55.668;37.858;2023-08-01T10:53:09;5.13;;;2.90;;
34673;SDS011;20879;55.668;37.858;2023-08-01T10:55:43;5.45;;;2.95;;
34673;SDS011;20879;55.668;37.858;2023-08-01T10:58:16;5.90;;;2.80;;
34673;SDS011;20879;55.668;37.858;2023-08-01T11:00:56;5.97;;;2.83;;
34673;SDS011;20879;55.668;37.858;2023-08-01T11:03:33;5.05;;;3.17;;
34673;SDS011;20879;55.668;37.858;2023-08-01T11:06:14;5.25;;;2.90;;
34673;SDS011;20879;55.668;37.858;2023-08-01T11:08:50;4.05;;;2.92;;
34673;SDS011;20879;55.668;37.858;2023-08-01T11:11:20;3.38;;;2.95;;
34673;SDS011;20879;55.668;37.858;2023-08-01T11:13:50;5.07;;;3.30;;
34673;SDS011;20879;55.668;37.858;2023-08-01T11:16:23;4.55;;;2.90;;
34673;SDS011;20879;55.668;37.858;2023-08-01T11:18:52;4.38;;;2.85;;
34673;SDS011;20879;55.668;37.858;2023-08-01T11:26:42;5.97;;;3.40;;
34673;SDS011;20879;55.668;37.858;2023-08-01T11:29:15;5.38;;;3.00;;
34673;SDS011;20879;55.668;37.858;2023-08-01T11:31:52;5.40;;;3.40;;
34673;SDS011;20879;55.668;37.858;2023-08-01T11:34:23;8.73;;;3.50;;
34673;SDS011;20879;55.668;37.858;2023-08-01T11:37:01;8.68;;;3.47;;
34673;SDS011;20879;55.668;37.858;2023-08-01T11:39:31;3.72;;;2.95;;
34673;SDS011;20879;55.668;37.858;2023-08-01T11:42:00;5.82;;;3.28;;
34673;SDS011;20879;55.668;37.858;2023-08-01T11:44:33;9.75;;;3.30;;
34673;SDS011;20879;55.668;37.858;2023-08-01T11:47:10;5.22;;;3.20;;
34673;SDS011;20879;55.668;37.858;2023-08-01T11:49:45;4.28;;;2.80;;
34673;SDS011;20879;55.668;37.858;2023-08-01T11:52:25;5.53;;;3.08;;
34673;SDS011;20879;55.668;37.858;2023-08-01T11:55:01;7.75;;;3.17;;
34673;SDS011;20879;55.668;37.858;2023-08-01T11:57:35;9.00;;;2.97;;
34673;SDS011;20879;55.668;37.858;2023-08-01T12:00:06;5.05;;;3.33;;
34673;SDS011;20879;55.668;37.858;2023-08-01T12:02:38;4.85;;;3.03;;
34673;SDS011;20879;55.668;37.858;2023-08-01T12:05:20;5.28;;;3.13;;
34673;SDS011;20879;55.668;37.858;2023-08-01T12:07:55;6.85;;;3.22;;
34673;SDS011;20879;55.668;37.858;2023-08-01T12:10:24;8.18;;;3.50;;
34673;SDS011;20879;55.668;37.858;2023-08-01T12:13:02;4.32;;;3.10;;
34673;SDS011;20879;55.668;37.858;2023-08-01T12:15:38;3.42;;;3.13;;
34673;SDS011;20879;55.668;37.858;2023-08-01T12:18:08;6.55;;;3.53;;
34673;SDS011;20879;55.668;37.858;2023-08-01T12:20:45;5.28;;;3.25;;
34673;SDS011;20879;55.668;37.858;2023-08-01T12:23:18;5.95;;;3.30;;
34673;SDS011;20879;55.668;37.858;2023-08-01T12:25:50;8.45;;;3.50;;
34673;SDS011;20879;55.668;37.858;2023-08-01T12:28:22;5.97;;;2.90;;
34673;SDS011;20879;55.668;37.858;2023-08-01T12:31:00;6.65;;;3.13;;
34673;SDS011;20879;55.668;37.858;2023-08-01T12:33:31;3.28;;;2.70;;
34673;SDS011;20879;55.668;37.858;2023-08-01T12:41:04;6.40;;;3.00;;
34673;SDS011;20879;55.668;37.858;2023-08-01T12:50:00;5.13;;;3.35;;
34673;SDS011;20879;55.668;37.858;2023-08-01T12:52:31;7.75;;;2.88;;
34673;SDS011;20879;55.668;37.858;2023-08-01T12:55:01;5.60;;;2.92;;
34673;SDS011;20879;55.668;37.858;2023-08-01T12:57:50;3.90;;;3.00;;
34673;SDS011;20879;55.668;37.858;2023-08-01T13:00:20;5.15;;;3.45;;
34673;SDS011;20879;55.668;37.858;2023-08-01T13:02:59;4.75;;;3.30;;
34673;SDS011;20879;55.668;37.858;2023-08-01T13:05:31;4.55;;;3.30;;
34673;SDS011;20879;55.668;37.858;2023-08-01T13:08:04;4.75;;;2.90;;
34673;SDS011;20879;55.668;37.858;2023-08-01T13:10:38;5.45;;;3.47;;
34673;SDS011;20879;55.668;37.858;2023-08-01T13:13:13;11.50;;;3.40;;
34673;SDS011;20879;55.668;37.858;2023-08-01T13:15:48;6.80;;;3.40;;
34673;SDS011;20879;55.668;37.858;2023-08-01T13:18:25;4.28;;;3.17;;
34673;SDS011;20879;55.668;37.858;2023-08-01T13:20:59;4.75;;;3.47;;
34673;SDS011;20879;55.668;37.858;2023-08-01T13:23:30;7.30;;;3.42;;
34673;SDS011;20879;55.668;37.858;2023-08-01T13:26:00;5.93;;;2.90;;
34673;SDS011;20879;55.668;37.858;2023-08-01T13:28:37;9.63;;;3.15;;
34673;SDS011;20879;55.668;37.858;2023-08-01T13:31:17;5.65;;;2.97;;
34673;SDS011;20879;55.668;37.858;2023-08-01T13:33:46;4.70;;;2.53;;
34673;SDS011;20879;55.668;37.858;2023-08-01T13:36:19;3.00;;;2.80;;
34673;SDS011;20879;55.668;37.858;2023-08-01T13:38:48;3.80;;;2.85;;
34673;SDS011;20879;55.668;37.858;2023-08-01T13:41:25;4.80;;;2.95;;
34673;SDS011;20879;55.668;37.858;2023-08-01T13:43:55;5.68;;;2.65;;
34673;SDS011;20879;55.668;37.858;2023-08-01T13:46:25;6.10;;;2.85;;
34673;SDS011;20879;55.668;37.858;2023-08-01T13:48:56;3.70;;;2.83;;
34673;SDS011;20879;55.668;37.858;2023-08-01T13:51:27;8.73;;;3.28;;
34673;SDS011;20879;55.668;37.858;2023-08-01T13:54:05;4.55;;;3.17;;
34673;SDS011;20879;55.668;37.858;2023-08-01T13:56:38;6.47;;;3.03;;
34673;SDS011;20879;55.668;37.858;2023-08-01T13:59:09;4.82;;;2.83;;
34673;SDS011;20879;55.668;37.858;2023-08-01T14:01:40;8.15;;;3.58;;
34673;SDS011;20879;55.668;37.858;2023-08-01T14:04:13;3.10;;;2.70;;
34673;SDS011;20879;55.668;37.858;2023-08-01T14:06:46;3.85;;;3.00;;
34673;SDS011;20879;55.668;37.858;2023-08-01T14:09:23;6.70;;;3.55;;
34673;SDS011;20879;55.668;37.858;2023-08-01T14:12:05;6.05;;;3.10;;
34673;SDS011;20879;55.668;37.858;2023-08-01T14:14:43;9.07;;;2.95;;
34673;SDS011;20879;55.668;37.858;2023-08-01T14:17:13;6.25;;;3.25;;
34673;SDS011;20879;55.668;37.858;2023-08-01T14:19:47;7.20;;;3.75;;
34673;SDS011;20879;55.668;37.858;2023-08-01T14:22:26;6.97;;;3.05;;
34673;SDS011;20879;55.668;37.858;2023-08-01T14:24:55;4.68;;;3.42;;
34673;SDS011;20879;55.668;37.858;2023-08-01T14:27:30;4.75;;;3.03;;
34673;SDS011;20879;55.668;37.858;2023-08-01T14:30:01;7.15;;;3.78;;
34673;SDS011;20879;55.668;37.858;2023-08-01T14:35:09;8.13;;;3.50;;
34673;SDS011;20879;55.668;37.858;2023-08-01T14:37:41;6.80;;;3.53;;
34673;SDS011;20879;55.668;37.858;2023-08-01T14:40:15;6.72;;;3.50;;
34673;SDS011;20879;55.668;37.858;2023-08-01T14:42:46;11.95;;;3.78;;
34673;SDS011;20879;55.668;37.858;2023-08-01T14:45:17;6.00;;;3.80;;
34673;SDS011;20879;55.668;37.858;2023-08-01T14:47:52;9.30;;;3.85;;
34673;SDS011;20879;55.668;37.858;2023-08-01T14:50:23;9.45;;;3.92;;
34673;SDS011;20879;55.668;37.858;2023-08-01T14:52:57;13.82;;;3.85;;
34673;SDS011;20879;55.668;37.858;2023-08-01T14:55:35;6.15;;;4.00;;
34673;SDS011;20879;55.668;37.858;2023-08-01T14:58:10;7.20;;;4.15;;
34673;SDS011;20879;55.668;37.858;2023-08-01T15:00:41;6.22;;;4.20;;
34673;SDS011;20879;55.668;37.858;2023-08-01T15:03:11;6.60;;;3.80;;
34673;SDS011;20879;55.668;37.858;2023-08-01T15:05:47;7.97;;;4.20;;
34673;SDS011;20879;55.668;37.858;2023-08-01T15:08:21;6.72;;;3.83;;
34673;SDS011;20879;55.668;37.858;2023-08-01T15:10:56;9.18;;;4.20;;
34673;SDS011;20879;55.668;37.858;2023-08-01T15:13:25;9.55;;;4.50;;
34673;SDS011;20879;55.668;37.858;2023-08-01T15:15:57;5.30;;;3.60;;
34673;SDS011;20879;55.668;37.858;2023-08-01T15:18:26;9.15;;;3.72;;
34673;SDS011;20879;55.668;37.858;2023-08-01T15:21:04;9.23;;;3.58;;
34673;SDS011;20879;55.668;37.858;2023-08-01T15:23:41;8.35;;;3.55;;
34673;SDS011;20879;55.668;37.858;2023-08-01T15:26:13;9.75;;;3.95;;